Hlavní strana
METAR-TAF:

METAR-TAF

Letiště :

Győr, Maďarsko

zeměpisná šířka: 47-37-28N, zeměpisná délka: 017-48-49E, výška: 129 m

Aktuální stav počasí

Zpráva byla vytvořena před 21 minutami, v 07:45 UTC
vítr z různých směrů 2 kt
Teplota 21°C
Vlhkost vzduchu 78%
Tlak 1022 hPa
Viditelnost 10 km a více
Polojasno ve výšce 1300 ft

METAR: LHPR 260745Z VRB02KT 9999 SCT013 21/17 Q1022 RMK BLU

Čas: 10:06 (08:06 UTC)


TAF: chybějící

Stav a předpovědi počasí z více než 4 000 letišť (zprávy METAR a TAF).

Červené a žluté tečky na mapě představují dostupné meteorologické stanice.

Když kurzor umístíte na tečku, zobrazí se název stanice.

Pak kliknutím zobrazíte stav a předpověď počasí.

Chcete-li změnit mapu, kliknutím na zelené tlačítko se znaménkem +mapu přiblížíte, kliknutím na zelené tlačítko se znaménkem – mapu oddálíte a kliknutím na zelené šipky přejdete na sousední mapy.


METAR-TAF: